Time;durP1;ratioP1;P1;durP2;ratioP2;P2;SDS_P1;SDS_P2;PMS_P1;PMS_P2;Temp;Humidity;BMP_temperature;BMP_pressure;BME280_temperature;BME280_humidity;BME280_pressure;Samples;Min_cycle;Max_cycle;Signal;HPM_P1;HPM_P2
2023/01/08 00:02:26;;;;;;;50.80;29.70;;;;;;;5.22;95.02;100661.79;107378;1255;88801;-54
2023/01/08 00:05:06;;;;;;;59.20;29.50;;;;;;;5.21;94.99;100655.24;107351;1257;93987;-55
2023/01/08 00:07:49;;;;;;;48.90;28.80;;;;;;;5.14;94.90;100655.38;107340;1257;80650;-55
2023/01/08 00:10:29;;;;;;;50.20;29.90;;;;;;;5.10;95.11;100652.71;107371;1259;81189;-55
2023/01/08 00:13:14;;;;;;;52.20;29.00;;;;;;;5.16;95.03;100652.58;107341;1256;99010;-54
2023/01/08 00:15:55;;;;;;;51.70;30.70;;;;;;;5.17;94.93;100656.21;107414;1256;87793;-53
2023/01/08 00:18:36;;;;;;;49.00;29.00;;;;;;;5.21;94.77;100655.63;107378;1255;93893;-57
2023/01/08 00:21:14;;;;;;;50.50;30.60;;;;;;;5.22;94.91;100658.73;107350;1255;82515;-56
2023/01/08 00:23:51;;;;;;;47.40;28.80;;;;;;;5.22;94.94;100662.50;107372;1257;83676;-55
2023/01/08 00:26:27;;;;;;;51.00;28.70;;;;;;;5.17;94.65;100656.02;107420;1256;98589;-58
2023/01/08 00:29:04;;;;;;;48.20;29.40;;;;;;;5.10;94.86;100657.09;107355;1257;88127;-57
2023/01/08 00:31:46;;;;;;;50.10;28.80;;;;;;;5.09;94.90;100650.92;107374;1255;93779;-57
2023/01/08 00:34:25;;;;;;;51.00;30.30;;;;;;;5.08;94.56;100647.97;107359;1255;80765;-53
2023/01/08 00:37:04;;;;;;;48.30;27.50;;;;;;;5.09;94.79;100644.33;107349;1255;81189;-53
2023/01/08 00:39:49;;;;;;;49.60;28.30;;;;;;;5.08;94.70;100643.66;107366;1256;100046;-57
2023/01/08 00:42:29;;;;;;;49.30;29.50;;;;;;;5.12;94.61;100644.88;107298;1256;88244;-57
2023/01/08 00:45:07;;;;;;;47.80;27.70;;;;;;;5.06;94.72;100643.13;107324;1257;92822;-58
2023/01/08 00:47:42;;;;;;;45.30;26.20;;;;;;;5.05;94.72;100641.98;107362;1256;81661;-57
2023/01/08 00:50:20;;;;;;;46.30;27.10;;;;;;;5.00;94.60;100636.45;107360;1256;81060;-54
2023/01/08 00:52:56;;;;;;;47.00;26.40;;;;;;;4.91;94.67;100636.41;107358;1257;99595;-57
2023/01/08 00:55:33;;;;;;;46.10;25.10;;;;;;;4.86;94.63;100637.60;107230;1257;91007;-58
2023/01/08 00:58:12;;;;;;;44.10;25.30;;;;;;;4.83;94.38;100633.81;107318;1257;93882;-58
2023/01/08 01:00:49;;;;;;;41.80;24.20;;;;;;;4.80;94.44;100630.39;107367;1257;82586;-58
2023/01/08 01:03:27;;;;;;;40.20;23.50;;;;;;;4.78;94.25;100636.09;107381;1257;83423;-58
2023/01/08 01:06:10;;;;;;;41.40;24.50;;;;;;;4.75;94.47;100637.27;107339;1257;99781;-50
2023/01/08 01:08:47;;;;;;;38.00;22.80;;;;;;;4.73;94.25;100632.84;107371;1256;88852;-58
2023/01/08 01:11:25;;;;;;;41.50;23.90;;;;;;;4.69;94.16;100626.05;107319;1255;94997;-57
2023/01/08 01:14:02;;;;;;;37.20;22.70;;;;;;;4.64;93.89;100628.30;107357;1257;80477;-57
2023/01/08 01:16:47;;;;;;;38.50;23.50;;;;;;;4.56;94.14;100621.80;107342;1257;81407;-58
2023/01/08 01:19:27;;;;;;;42.10;24.30;;;;;;;4.53;94.10;100622.09;107353;1256;98584;-57
2023/01/08 01:22:06;;;;;;;34.50;23.00;;;;;;;4.49;93.77;100615.11;107219;1257;88678;-57
2023/01/08 01:24:50;;;;;;;34.20;22.20;;;;;;;4.52;93.63;100617.39;107318;1256;94168;-52
2023/01/08 01:27:27;;;;;;;37.40;23.20;;;;;;;4.47;93.99;100614.25;107283;1257;81160;-54
2023/01/08 01:30:05;;;;;;;36.30;22.20;;;;;;;4.46;93.87;100615.08;107366;1257;82932;-55
2023/01/08 01:32:50;;;;;;;37.00;22.20;;;;;;;4.40;94.19;100614.41;107367;1256;98567;-56
2023/01/08 01:35:31;;;;;;;34.70;22.20;;;;;;;4.42;94.20;100612.30;107324;1257;88544;-56
2023/01/08 01:38:08;;;;;;;34.80;22.40;;;;;;;4.39;93.99;100612.98;107361;1257;93851;-57
2023/01/08 01:40:54;;;;;;;37.20;23.00;;;;;;;4.40;93.85;100607.51;107358;1257;78111;-58
2023/01/08 01:43:52;;;;;;;37.60;23.70;;;;;;;4.31;94.03;100604.27;107352;1255;83378;-59
2023/01/08 01:46:40;;;;;;;36.70;23.40;;;;;;;4.36;93.72;100603.04;107396;1257;99412;-59
2023/01/08 01:49:22;;;;;;;36.60;23.70;;;;;;;4.32;93.94;100609.98;107348;1257;88888;-57
2023/01/08 01:52:01;;;;;;;36.20;21.70;;;;;;;4.31;93.75;100596.23;107494;1255;94016;-58
2023/01/08 01:54:38;;;;;;;34.90;22.70;;;;;;;4.28;93.63;100593.49;107433;1256;80272;-55
2023/01/08 01:57:20;;;;;;;33.80;22.30;;;;;;;4.29;93.74;100591.58;107368;1255;82111;-55
2023/01/08 02:00:09;;;;;;;37.80;24.20;;;;;;;4.24;93.71;100590.66;107380;1255;99221;-55
2023/01/08 02:02:52;;;;;;;36.30;22.60;;;;;;;4.30;93.71;100588.34;107336;1256;88859;-48
2023/01/08 02:05:34;;;;;;;;;;;;;;;4.32;93.69;100587.38;107346;1259;94338;-58
2023/01/08 02:08:20;;;;;;;32.80;21.70;;;;;;;4.36;93.72;100580.23;107344;1256;80928;-57
2023/01/08 02:11:04;;;;;;;37.60;24.20;;;;;;;4.33;93.52;100583.61;107296;1256;83713;-55
2023/01/08 02:13:52;;;;;;;34.50;22.80;;;;;;;4.32;93.48;100579.19;107194;1257;98014;-55
2023/01/08 02:16:35;;;;;;;32.30;21.10;;;;;;;4.33;93.51;100572.48;107075;1257;89180;-58
2023/01/08 02:19:24;;;;;;;31.90;21.00;;;;;;;4.30;93.33;100574.97;107339;1258;96691;-56
2023/01/08 02:22:13;;;;;;;32.30;22.40;;;;;;;4.29;93.38;100569.63;107313;1256;79527;-55
2023/01/08 02:25:02;;;;;;;31.60;20.50;;;;;;;4.29;93.60;100573.23;107319;1257;81598;-55
2023/01/08 02:27:50;;;;;;;35.90;22.80;;;;;;;4.24;93.64;100565.00;107311;1256;98237;-58
2023/01/08 02:30:38;;;;;;;33.10;21.20;;;;;;;4.27;93.61;100564.85;107347;1256;86738;-54
2023/01/08 02:33:17;;;;;;;33.90;21.50;;;;;;;4.26;93.66;100562.15;107328;1255;94568;-48
2023/01/08 02:36:11;;;;;;;33.00;21.30;;;;;;;4.24;93.88;100559.52;107375;1256;81280;-58
2023/01/08 02:39:05;;;;;;;33.40;21.10;;;;;;;4.29;93.82;100562.66;107412;1256;81902;-58
2023/01/08 02:42:07;;;;;;;33.20;21.70;;;;;;;4.25;93.85;100558.86;107366;1259;99984;-55
2023/01/08 02:45:19;;;;;;;32.80;21.00;;;;;;;4.24;93.86;100553.40;107383;1255;86715;-54
2023/01/08 02:48:02;;;;;;;30.70;21.20;;;;;;;4.22;94.00;100548.09;107248;1257;94361;-57
2023/01/08 02:50:48;;;;;;;30.60;21.90;;;;;;;4.24;94.14;100542.02;107315;1255;81831;-49
2023/01/08 02:53:32;;;;;;;31.30;20.60;;;;;;;4.23;94.06;100546.54;107274;1256;82654;-54
2023/01/08 02:56:16;;;;;;;22.50;16.50;;;;;;;4.17;94.36;100547.61;107252;1257;98552;-55
2023/01/08 02:58:58;;;;;;;28.50;20.20;;;;;;;4.15;94.50;100551.88;107306;1257;87425;-56
2023/01/08 03:01:37;;;;;;;25.90;17.90;;;;;;;4.15;94.19;100547.59;107291;1257;94747;-49
2023/01/08 03:04:18;;;;;;;24.90;17.90;;;;;;;4.13;94.20;100541.05;107277;1255;79701;-49
2023/01/08 03:06:59;;;;;;;25.30;19.00;;;;;;;4.10;94.25;100542.17;107305;1256;80479;-54
2023/01/08 03:09:41;;;;;;;25.70;17.60;;;;;;;4.13;94.00;100540.48;107288;1257;99189;-57
2023/01/08 03:12:24;;;;;;;25.60;17.70;;;;;;;4.08;93.91;100537.73;107306;1257;88226;-57
2023/01/08 03:15:08;;;;;;;25.40;16.70;;;;;;;4.04;93.69;100529.44;107371;1257;95081;-52
2023/01/08 03:17:52;;;;;;;25.30;17.30;;;;;;;4.01;93.73;100527.73;107323;1257;81565;-55
2023/01/08 03:20:36;;;;;;;21.80;15.60;;;;;;;3.96;93.82;100524.88;107369;1256;82648;-58
2023/01/08 03:23:15;;;;;;;20.90;15.50;;;;;;;3.90;93.58;100523.98;107400;1256;99899;-57
2023/01/08 03:25:50;;;;;;;21.90;15.30;;;;;;;3.81;93.64;100520.38;107258;1255;88558;-58
2023/01/08 03:28:31;;;;;;;19.90;14.10;;;;;;;3.70;93.80;100523.04;107358;1255;95523;-57
2023/01/08 03:31:11;;;;;;;19.90;14.80;;;;;;;3.70;93.76;100517.02;107312;1257;78236;-55
2023/01/08 03:33:50;;;;;;;19.10;14.10;;;;;;;3.66;93.76;100516.36;107342;1257;82608;-57
2023/01/08 03:36:34;;;;;;;21.00;14.10;;;;;;;3.60;94.12;100518.70;107303;1255;99597;-45
2023/01/08 03:39:23;;;;;;;19.70;14.70;;;;;;;3.54;94.11;100519.23;107255;1257;88705;-54
2023/01/08 03:42:06;;;;;;;18.10;13.40;;;;;;;3.50;93.98;100516.89;107320;1256;96171;-57
2023/01/08 03:44:41;;;;;;;18.20;13.20;;;;;;;3.51;93.97;100514.14;107286;1257;77871;-57
2023/01/08 03:47:21;;;;;;;17.90;13.50;;;;;;;3.52;94.15;100511.50;107330;1257;83386;-56
2023/01/08 03:50:08;;;;;;;18.30;13.60;;;;;;;3.52;94.18;100518.00;107317;1256;99888;-54
2023/01/08 03:52:45;;;;;;;19.60;14.30;;;;;;;3.54;94.31;100522.57;107299;1257;88113;-54
2023/01/08 03:55:22;;;;;;;20.60;14.20;;;;;;;3.59;94.22;100513.41;107310;1257;94622;-57
2023/01/08 03:57:59;;;;;;;20.20;13.20;;;;;;;3.61;94.12;100514.25;107323;1255;80748;-58
2023/01/08 04:00:38;;;;;;;18.90;14.00;;;;;;;3.55;94.17;100511.73;107387;1257;81426;-56
2023/01/08 04:03:23;;;;;;;18.30;13.60;;;;;;;3.55;94.30;100517.66;107332;1256;99047;-56
2023/01/08 04:06:06;;;;;;;21.20;13.80;;;;;;;3.58;94.19;100520.04;107362;1256;89444;-59
2023/01/08 04:08:47;;;;;;;18.80;12.90;;;;;;;3.58;94.07;100519.70;107409;1257;93182;-57
2023/01/08 04:11:25;;;;;;;17.20;13.10;;;;;;;3.56;93.97;100516.16;107344;1257;81034;-58
2023/01/08 04:14:02;;;;;;;19.00;12.90;;;;;;;3.58;93.91;100520.97;107246;1257;80488;-54
2023/01/08 04:16:46;;;;;;;20.80;14.50;;;;;;;3.60;93.93;100525.40;107339;1257;99135;-57
2023/01/08 04:19:20;;;;;;;17.60;13.20;;;;;;;3.60;93.83;100528.39;107322;1257;87996;-57
2023/01/08 04:22:02;;;;;;;16.90;12.80;;;;;;;3.52;94.03;100530.25;107296;1256;94204;-58
2023/01/08 04:24:45;;;;;;;18.70;12.50;;;;;;;3.51;93.74;100526.23;107313;1257;80751;-57
2023/01/08 04:27:28;;;;;;;18.30;12.90;;;;;;;3.47;93.68;100515.17;107342;1257;83554;-57
2023/01/08 04:30:07;;;;;;;17.00;12.70;;;;;;;3.53;93.86;100512.67;107369;1257;98254;-55
2023/01/08 04:32:46;;;;;;;17.10;12.60;;;;;;;3.51;93.96;100503.60;107226;1256;87866;-55
2023/01/08 04:35:28;;;;;;;19.20;12.90;;;;;;;3.51;93.71;100503.48;107320;1255;94811;-54
2023/01/08 04:38:11;;;;;;;17.50;13.00;;;;;;;3.50;94.00;100496.80;107288;1257;81348;-52
2023/01/08 04:40:56;;;;;;;18.00;12.50;;;;;;;3.48;93.91;100500.14;107319;1256;80605;-54
2023/01/08 04:43:35;;;;;;;19.00;13.80;;;;;;;3.48;93.71;100505.82;107332;1257;99416;-55
2023/01/08 04:46:10;;;;;;;19.70;13.20;;;;;;;3.45;93.95;100504.90;107271;1257;87804;-57
2023/01/08 04:48:51;;;;;;;18.40;12.70;;;;;;;3.46;94.02;100505.01;107393;1256;95263;-57
2023/01/08 04:51:33;;;;;;;19.50;13.40;;;;;;;3.46;94.13;100503.23;107356;1256;80953;-54
2023/01/08 04:54:14;;;;;;;21.70;14.10;;;;;;;3.45;94.02;100496.52;107375;1259;82813;-56
2023/01/08 04:56:53;;;;;;;20.00;13.20;;;;;;;3.44;94.13;100493.23;107367;1257;100535;-56
2023/01/08 04:59:35;;;;;;;18.60;13.90;;;;;;;3.51;94.08;100496.66;107356;1256;87159;-56
2023/01/08 05:02:19;;;;;;;21.00;13.40;;;;;;;3.50;94.10;100497.33;107291;1256;94004;-55
2023/01/08 05:04:54;;;;;;;;;;;;;;;3.46;94.22;100493.06;107355;1259;81401;-51
2023/01/08 05:07:34;;;;;;;20.20;13.70;;;;;;;3.50;94.01;100490.39;107367;1257;81838;-48
2023/01/08 05:10:11;;;;;;;19.40;12.80;;;;;;;3.50;94.01;100487.15;107336;1257;99456;-48
2023/01/08 05:12:53;;;;;;;19.70;14.30;;;;;;;3.51;94.01;100488.98;107343;1257;88840;-54
2023/01/08 05:15:31;;;;;;;19.70;12.80;;;;;;;3.50;94.29;100483.23;107294;1256;93124;-56
2023/01/08 05:18:10;;;;;;;16.00;11.30;;;;;;;3.48;94.36;100485.33;107334;1257;78282;-54
2023/01/08 05:20:48;;;;;;;20.90;13.60;;;;;;;3.44;94.15;100483.64;107190;1257;83081;-55
2023/01/08 05:23:28;;;;;;;18.00;13.30;;;;;;;3.47;94.18;100479.23;107320;1255;99420;-55
2023/01/08 05:26:13;;;;;;;20.50;14.60;;;;;;;3.52;94.12;100479.98;107345;1257;88396;-53
2023/01/08 05:28:51;;;;;;;20.40;13.10;;;;;;;3.54;94.12;100471.83;107300;1255;95772;-56
2023/01/08 05:31:31;;;;;;;17.70;12.10;;;;;;;3.58;94.00;100472.86;107349;1257;80208;-54
2023/01/08 05:34:16;;;;;;;19.50;13.60;;;;;;;3.60;94.08;100468.11;107334;1257;81665;-55
2023/01/08 05:36:57;;;;;;;19.90;12.70;;;;;;;3.59;94.06;100478.29;107375;1259;97481;-58
2023/01/08 05:39:44;;;;;;;18.50;12.90;;;;;;;3.63;94.07;100479.34;107399;1259;89608;-48
2023/01/08 05:42:24;;;;;;;21.80;13.10;;;;;;;3.58;93.97;100481.05;107355;1255;95120;-53
2023/01/08 05:44:59;;;;;;;19.90;13.20;;;;;;;3.56;93.81;100482.85;107395;1257;81013;-54
2023/01/08 05:47:40;;;;;;;18.20;12.00;;;;;;;3.58;93.96;100474.66;107343;1256;83458;-54
2023/01/08 05:50:15;;;;;;;15.70;10.50;;;;;;;3.57;93.74;100471.88;107326;1257;100086;-56
2023/01/08 05:52:53;;;;;;;;;;;;;;;3.49;93.71;100473.55;107368;1259;88673;-56
2023/01/08 05:55:36;;;;;;;13.60;9.80;;;;;;;3.45;93.81;100474.29;107322;1257;95880;-56
2023/01/08 05:58:11;;;;;;;14.90;9.60;;;;;;;3.45;93.75;100481.94;106987;1257;532425;-54
2023/01/08 06:00:54;;;;;;;14.60;10.60;;;;;;;3.47;93.65;100476.64;107334;1257;83283;-57
2023/01/08 06:03:37;;;;;;;17.90;11.80;;;;;;;3.42;93.53;100468.66;107327;1256;99058;-58
2023/01/08 06:06:23;;;;;;;15.70;10.30;;;;;;;3.39;93.44;100467.36;107314;1259;89073;-57
2023/01/08 06:09:03;;;;;;;15.20;10.00;;;;;;;3.42;93.32;100469.57;107347;1257;95030;-58
2023/01/08 06:11:47;;;;;;;16.10;10.30;;;;;;;3.41;93.26;100469.90;107349;1257;77925;-56
2023/01/08 06:14:30;;;;;;;14.30;9.90;;;;;;;3.41;93.18;100467.02;107335;1257;83291;-52
2023/01/08 06:17:13;;;;;;;16.20;10.20;;;;;;;3.39;93.03;100467.34;107357;1256;99566;-56
2023/01/08 06:19:50;;;;;;;14.60;10.40;;;;;;;3.35;93.22;100471.45;107386;1256;89246;-56
2023/01/08 06:22:25;;;;;;;16.20;9.90;;;;;;;3.33;93.19;100473.48;107334;1256;94906;-56
2023/01/08 06:25:02;;;;;;;15.60;9.10;;;;;;;3.29;93.18;100472.24;107369;1255;78822;-49
2023/01/08 06:27:37;;;;;;;;;;;;;;;3.26;93.26;100468.29;107397;1257;83283;-55
2023/01/08 06:30:13;;;;;;;14.40;9.60;;;;;;;3.27;93.26;100462.46;107295;1257;99518;-59
2023/01/08 06:32:57;;;;;;;16.70;10.70;;;;;;;3.25;93.36;100461.92;107326;1257;87549;-59
2023/01/08 06:35:42;;;;;;;14.30;10.00;;;;;;;3.23;93.09;100453.55;107344;1258;92738;-57
2023/01/08 06:38:20;;;;;;;16.80;10.20;;;;;;;3.24;93.08;100456.84;107305;1259;81814;-58
2023/01/08 06:40:56;;;;;;;20.70;11.20;;;;;;;3.25;93.28;100458.56;107322;1255;83201;-57
2023/01/08 06:43:31;;;;;;;17.90;10.90;;;;;;;3.24;93.18;100456.85;107323;1257;99665;-57
2023/01/08 06:46:09;;;;;;;16.10;10.30;;;;;;;3.25;93.32;100447.55;107365;1256;89973;-51
2023/01/08 06:48:50;;;;;;;14.60;9.70;;;;;;;3.25;93.05;100446.28;107307;1257;94247;-52
2023/01/08 06:51:33;;;;;;;15.50;10.90;;;;;;;3.21;92.95;100441.82;107293;1255;80471;-55
2023/01/08 06:54:10;;;;;;;14.10;9.80;;;;;;;3.19;93.18;100438.08;107321;1257;79588;-53
2023/01/08 06:56:50;;;;;;;13.50;9.40;;;;;;;3.18;93.06;100436.05;107335;1257;99379;-55
2023/01/08 06:59:26;;;;;;;15.90;9.90;;;;;;;3.13;93.15;100435.86;107363;1259;89297;-55
2023/01/08 07:02:13;;;;;;;14.80;10.20;;;;;;;3.13;93.16;100440.10;107326;1256;95371;-58
2023/01/08 07:05:01;;;;;;;16.40;10.90;;;;;;;3.17;92.98;100441.45;107327;1257;80958;-57
2023/01/08 07:07:45;;;;;;;14.20;9.70;;;;;;;3.14;92.92;100439.80;107308;1259;82489;-52
2023/01/08 07:10:30;;;;;;;14.70;8.80;;;;;;;3.13;92.93;100438.50;107348;1255;99667;-56
2023/01/08 07:13:11;;;;;;;14.00;9.40;;;;;;;3.11;93.06;100437.04;107313;1257;87962;-57
2023/01/08 07:15:56;;;;;;;16.70;9.70;;;;;;;3.17;92.82;100437.56;107332;1259;94619;-57
2023/01/08 07:18:37;;;;;;;12.50;8.40;;;;;;;3.16;92.78;100433.08;107292;1257;78739;-56
2023/01/08 07:21:11;;;;;;;18.50;9.90;;;;;;;3.08;92.75;100428.85;107335;1257;81207;-54
2023/01/08 07:23:50;;;;;;;14.90;10.50;;;;;;;3.06;92.99;100426.73;107334;1257;99733;-54
2023/01/08 07:26:27;;;;;;;15.00;9.40;;;;;;;3.14;92.90;100412.23;107359;1258;86772;-57
2023/01/08 07:29:08;;;;;;;14.50;9.60;;;;;;;3.12;92.74;100412.77;107320;1255;94656;-57
2023/01/08 07:31:52;;;;;;;14.80;9.40;;;;;;;3.14;92.62;100412.26;107346;1257;80902;-57
2023/01/08 07:34:39;;;;;;;14.30;9.20;;;;;;;3.13;92.45;100409.27;107371;1257;82318;-44
2023/01/08 07:37:24;;;;;;;16.80;10.20;;;;;;;3.12;92.63;100404.62;107326;1259;100451;-57
2023/01/08 07:40:08;;;;;;;13.10;9.00;;;;;;;3.16;92.63;100393.91;107374;1259;86849;-56
2023/01/08 07:42:45;;;;;;;14.50;9.90;;;;;;;3.23;92.42;100388.23;107391;1257;94848;-57
2023/01/08 07:45:28;;;;;;;14.10;9.60;;;;;;;3.25;92.44;100392.00;107386;1257;81214;-57
2023/01/08 07:48:09;;;;;;;14.40;9.60;;;;;;;3.27;92.29;100392.02;107412;1257;83321;-58
2023/01/08 07:50:58;;;;;;;15.50;9.80;;;;;;;3.28;92.27;100392.24;107328;1254;98753;-57
2023/01/08 07:53:43;;;;;;;13.80;9.60;;;;;;;3.27;92.31;100397.33;107383;1259;88946;-56
2023/01/08 07:56:20;;;;;;;16.40;10.50;;;;;;;3.26;92.21;100395.31;107337;1259;94872;-58
2023/01/08 07:59:04;;;;;;;19.20;10.00;;;;;;;3.22;92.10;100392.45;107335;1260;80809;-59
2023/01/08 08:01:47;;;;;;;14.30;9.50;;;;;;;3.23;92.27;100385.90;107360;1255;81994;-55
2023/01/08 08:04:27;;;;;;;13.90;8.50;;;;;;;3.20;92.22;100385.73;107345;1258;98593;-55
2023/01/08 08:07:09;;;;;;;12.80;7.70;;;;;;;3.21;92.31;100386.13;107352;1257;86673;-55
2023/01/08 08:09:56;;;;;;;16.90;9.50;;;;;;;3.21;92.21;100387.95;107324;1260;94699;-55
2023/01/08 08:12:41;;;;;;;13.60;9.20;;;;;;;3.26;92.17;100396.73;107325;1259;79814;-53
2023/01/08 08:15:17;;;;;;;15.00;10.20;;;;;;;3.22;92.05;100391.91;107335;1257;82767;-59
2023/01/08 08:17:59;;;;;;;16.70;10.10;;;;;;;3.26;92.15;100386.20;107347;1259;97443;-57
2023/01/08 08:20:45;;;;;;;14.00;8.90;;;;;;;3.28;92.11;100382.48;107328;1257;87962;-57
2023/01/08 08:23:24;;;;;;;14.00;9.80;;;;;;;3.29;91.97;100381.48;107363;1259;95667;-57
2023/01/08 08:26:03;;;;;;;14.00;9.90;;;;;;;3.33;92.16;100380.94;107378;1257;78391;-57
2023/01/08 08:28:45;;;;;;;13.20;9.20;;;;;;;3.37;92.08;100376.23;107386;1258;80234;-56
2023/01/08 08:31:33;;;;;;;14.50;9.80;;;;;;;3.40;91.99;100374.61;107349;1257;98951;-53
2023/01/08 08:34:19;;;;;;;14.60;9.60;;;;;;;3.46;91.74;100370.26;107383;1259;88214;-55
2023/01/08 08:37:02;;;;;;;14.90;9.90;;;;;;;3.53;91.63;100365.29;107365;1260;95520;-58
2023/01/08 08:39:44;;;;;;;14.70;9.80;;;;;;;3.54;91.55;100368.34;107352;1259;80237;-56
2023/01/08 08:42:28;;;;;;;15.50;9.70;;;;;;;3.55;91.35;100363.70;107372;1257;81450;-55
2023/01/08 08:45:07;;;;;;;16.70;10.50;;;;;;;3.52;91.18;100363.98;107346;1260;97915;-57
2023/01/08 08:47:47;;;;;;;14.90;10.00;;;;;;;3.52;91.11;100374.96;107332;1257;87591;-57
2023/01/08 08:50:27;;;;;;;15.10;10.30;;;;;;;3.47;90.81;100366.97;107328;1260;95528;-56
2023/01/08 08:53:07;;;;;;;15.20;10.30;;;;;;;3.45;91.09;100355.34;107325;1257;78317;-55
2023/01/08 08:55:42;;;;;;;15.50;9.40;;;;;;;3.49;91.32;100345.94;107352;1257;81254;-56
2023/01/08 08:58:19;;;;;;;17.00;10.70;;;;;;;3.52;91.11;100343.81;107361;1258;98292;-56
2023/01/08 09:01:03;;;;;;;15.50;11.10;;;;;;;3.53;91.07;100346.36;107341;1257;87464;-52
2023/01/08 09:03:38;;;;;;;17.20;11.20;;;;;;;3.50;91.07;100354.20;107344;1257;94755;-46
2023/01/08 09:06:21;;;;;;;16.10;10.40;;;;;;;3.54;91.06;100356.63;107310;1260;81281;-56
2023/01/08 09:09:03;;;;;;;15.00;10.90;;;;;;;3.60;90.96;100356.61;107322;1257;83354;-57
2023/01/08 09:11:45;;;;;;;15.10;11.10;;;;;;;3.64;91.00;100356.11;107386;1255;99377;-53
2023/01/08 09:14:27;;;;;;;17.00;10.20;;;;;;;3.66;90.90;100362.46;107382;1257;87645;-56
2023/01/08 09:17:06;;;;;;;17.80;10.90;;;;;;;3.66;90.69;100359.03;107362;1257;94120;-53
2023/01/08 09:19:51;;;;;;;15.90;10.40;;;;;;;3.73;90.73;100351.77;107306;1260;80754;-60
2023/01/08 09:22:32;;;;;;;18.90;11.20;;;;;;;3.76;90.62;100349.88;107378;1257;80367;-57
2023/01/08 09:25:08;;;;;;;17.60;11.60;;;;;;;3.79;90.51;100344.84;107368;1257;99340;-59
2023/01/08 09:27:45;;;;;;;16.60;11.50;;;;;;;3.80;90.38;100342.41;107427;1257;88005;-67
2023/01/08 09:30:20;;;;;;;17.70;11.10;;;;;;;3.85;90.27;100340.10;107402;1257;94500;-59
2023/01/08 09:33:00;;;;;;;17.70;11.00;;;;;;;3.85;90.17;100337.46;107382;1255;80944;-58
2023/01/08 09:35:37;;;;;;;16.60;11.40;;;;;;;3.84;90.02;100340.39;107391;1257;82479;-55
2023/01/08 09:38:13;;;;;;;14.20;9.50;;;;;;;3.91;90.09;100339.17;107338;1257;99352;-55
2023/01/08 09:40:59;;;;;;;16.80;11.30;;;;;;;4.00;90.01;100331.70;107380;1258;87944;-57
2023/01/08 09:43:42;;;;;;;19.20;11.30;;;;;;;4.04;89.68;100329.85;107351;1259;95491;-55
2023/01/08 09:46:22;;;;;;;16.20;10.50;;;;;;;4.00;89.47;100326.99;107410;1260;80085;-55
2023/01/08 09:49:00;;;;;;;18.10;11.10;;;;;;;4.05;89.87;100319.39;107342;1259;81438;-56
2023/01/08 09:51:40;;;;;;;17.80;11.60;;;;;;;4.05;89.53;100315.47;107393;1255;99180;-57
2023/01/08 09:54:19;;;;;;;16.80;11.30;;;;;;;4.11;89.16;100312.80;107289;1257;88441;-58
2023/01/08 09:57:02;;;;;;;18.90;10.90;;;;;;;4.12;89.31;100311.21;107296;1256;95698;-55
2023/01/08 09:59:42;;;;;;;16.00;10.60;;;;;;;4.19;89.23;100313.27;107356;1258;78592;-55
2023/01/08 10:02:20;;;;;;;18.20;11.10;;;;;;;4.27;89.37;100314.47;107230;1257;82823;-55
2023/01/08 10:05:02;;;;;;;17.70;10.80;;;;;;;4.35;89.29;100304.86;107374;1257;98399;-57
2023/01/08 10:07:44;;;;;;;;;;;;;;;4.45;88.59;100298.34;107260;1257;87041;-56
2023/01/08 10:10:26;;;;;;;16.70;10.50;;;;;;;4.47;88.65;100302.64;107270;1260;94517;-57
2023/01/08 10:13:08;;;;;;;17.00;11.00;;;;;;;4.52;88.30;100308.14;107269;1256;79130;-58
2023/01/08 10:15:51;;;;;;;17.50;11.60;;;;;;;4.55;88.22;100310.20;107275;1257;82070;-56
2023/01/08 10:18:33;;;;;;;16.00;10.60;;;;;;;4.65;88.32;100301.23;107229;1257;99407;-56
2023/01/08 10:21:11;;;;;;;15.30;10.50;;;;;;;4.72;88.20;100299.13;107286;1258;88735;-57
2023/01/08 10:23:57;;;;;;;17.90;11.00;;;;;;;4.83;88.09;100289.45;107252;1257;94959;-59
2023/01/08 10:26:35;;;;;;;15.80;10.10;;;;;;;4.92;88.31;100286.39;107232;1258;79156;-58
2023/01/08 10:29:15;;;;;;;15.60;10.50;;;;;;;4.90;88.09;100283.77;107316;1257;81048;-57
2023/01/08 10:31:54;;;;;;;15.20;10.90;;;;;;;4.78;87.19;100275.16;107310;1258;98749;-57
2023/01/08 10:34:43;;;;;;;16.70;11.60;;;;;;;4.70;87.52;100279.37;107117;1258;88027;-57
2023/01/08 10:37:32;;;;;;;14.40;10.50;;;;;;;4.62;87.13;100279.29;107285;1257;94803;-56
2023/01/08 10:40:22;;;;;;;13.60;10.80;;;;;;;4.54;87.06;100272.61;107279;1257;82014;-56
2023/01/08 10:43:13;;;;;;;17.30;10.90;;;;;;;4.59;87.50;100260.35;107308;1258;81505;-57
2023/01/08 10:46:01;;;;;;;15.80;10.70;;;;;;;4.58;87.29;100247.45;107271;1258;98767;-58
2023/01/08 10:48:46;;;;;;;13.40;10.40;;;;;;;4.58;86.86;100239.42;107171;1257;88849;-58
2023/01/08 10:51:24;;;;;;;;;;;;;;;4.64;86.91;100240.40;107304;1257;94565;-58
2023/01/08 10:54:14;;;;;;;15.50;11.10;;;;;;;4.64;86.75;100235.98;107305;1259;80144;-58
2023/01/08 10:56:49;;;;;;;16.20;10.80;;;;;;;4.70;87.19;100226.92;107295;1257;81599;-58
2023/01/08 10:59:33;;;;;;;14.60;9.40;;;;;;;4.79;86.67;100218.03;107285;1258;99763;-56
2023/01/08 11:02:30;;;;;;;14.50;10.60;;;;;;;4.88;86.74;100219.73;107302;1257;87053;-55
2023/01/08 11:05:10;;;;;;;14.80;10.50;;;;;;;4.96;86.62;100222.30;107273;1257;95122;-59
2023/01/08 11:07:48;;;;;;;15.10;10.70;;;;;;;5.04;86.15;100221.84;107246;1257;79948;-60
2023/01/08 11:10:29;;;;;;;17.20;11.70;;;;;;;4.95;86.15;100222.52;107304;1257;82763;-60
2023/01/08 11:13:18;;;;;;;17.20;10.60;;;;;;;4.89;85.35;100217.16;107350;1256;98430;-61
2023/01/08 11:16:03;;;;;;;18.60;11.90;;;;;;;4.85;85.72;100213.60;107277;1258;89627;-61
2023/01/08 11:18:48;;;;;;;16.80;11.40;;;;;;;4.93;85.92;100210.95;107316;1257;94448;-60
2023/01/08 11:21:34;;;;;;;18.40;12.00;;;;;;;4.90;85.23;100217.73;107321;1258;79616;-60
2023/01/08 11:24:26;;;;;;;20.30;12.20;;;;;;;4.84;85.64;100211.38;107329;1258;82375;-61
2023/01/08 11:27:18;;;;;;;18.90;11.30;;;;;;;4.86;85.77;100213.33;107327;1257;98286;-61
2023/01/08 11:30:01;;;;;;;18.30;12.10;;;;;;;4.84;85.10;100213.45;107319;1257;86998;-61
2023/01/08 11:33:04;;;;;;;16.10;11.70;;;;;;;4.80;85.27;100218.10;107257;1257;95432;-61
2023/01/08 11:35:50;;;;;;;16.50;11.60;;;;;;;4.82;85.47;100208.55;107239;1257;78441;-60
2023/01/08 11:38:27;;;;;;;17.10;12.10;;;;;;;4.78;85.39;100204.77;107352;1257;82257;-66
2023/01/08 11:41:19;;;;;;;20.10;12.50;;;;;;;4.72;85.23;100206.08;107325;1257;99646;-60
2023/01/08 11:44:18;;;;;;;20.10;13.10;;;;;;;4.73;85.25;100200.96;107116;1257;89115;-58
2023/01/08 11:47:11;;;;;;;19.60;13.30;;;;;;;4.81;84.96;100195.86;107308;1257;94947;-60
2023/01/08 11:50:11;;;;;;;18.90;12.30;;;;;;;4.77;84.40;100203.73;107122;1258;78902;-60
2023/01/08 11:53:10;;;;;;;17.70;12.70;;;;;;;4.70;84.46;100199.58;107286;1257;81723;-60
2023/01/08 11:56:14;;;;;;;20.30;13.20;;;;;;;4.53;83.90;100200.48;107312;1257;99497;-61
2023/01/08 11:59:14;;;;;;;24.20;13.30;;;;;;;4.52;84.42;100195.99;107275;1258;88844;-58
2023/01/08 12:02:03;;;;;;;18.50;13.80;;;;;;;4.53;84.37;100193.23;107326;1257;93876;-61
2023/01/08 12:05:07;;;;;;;19.60;13.00;;;;;;;4.56;84.55;100181.66;107308;1257;78996;-61
2023/01/08 12:07:50;;;;;;;;;;;;;;;4.58;84.42;100183.07;107397;1257;81665;-60
2023/01/08 12:10:39;;;;;;;22.30;14.10;;;;;;;4.58;84.58;100187.04;107334;1258;97489;-60
2023/01/08 12:13:39;;;;;;;22.50;14.60;;;;;;;4.55;84.67;100198.70;107293;1257;87992;-58
2023/01/08 12:16:41;;;;;;;21.10;13.00;;;;;;;4.54;84.58;100202.94;107374;1256;94398;-59
2023/01/08 12:19:45;;;;;;;19.40;12.50;;;;;;;4.52;84.48;100188.01;107321;1256;80905;-60
2023/01/08 12:22:52;;;;;;;23.60;14.60;;;;;;;4.53;84.56;100169.98;107339;1259;82839;-62